Time;durP1;ratioP1;P1;durP2;ratioP2;P2;SDS_P1;SDS_P2;PMS_P1;PMS_P2;Temp;Humidity;BMP_temperature;BMP_pressure;BME280_temperature;BME280_humidity;BME280_pressure;Samples;Min_cycle;Max_cycle;Signal;HPM_P1;HPM_P2
2021/03/15 00:07:51;;;;;;;26.1;16.2;;;;;;;0.55;97.36914;97947.66;;;;
2021/03/15 00:17:48;;;;;;;29.7;21.9;;;;;;;0.84;100;97948.81;;;;
2021/03/15 00:27:46;;;;;;;26.9;21.2;;;;;;;1.27;100;97952.92;;;;
2021/03/15 00:37:43;;;;;;;25.3;20;;;;;;;1.61;99.9707;97956.67;;;;
2021/03/15 00:47:41;;;;;;;30.7;21.5;;;;;;;1.87;99.04492;97947.66;;;;
2021/03/15 00:57:39;;;;;;;31.2;21.8;;;;;;;2.12;98.41895;97943.38;;;;
2021/03/15 01:07:37;;;;;;;25.5;18.9;;;;;;;2.33;97.01563;97936.92;;;;
2021/03/15 01:17:34;;;;;;;26.5;19.8;;;;;;;2.44;96.80957;97933.18;;;;
2021/03/15 01:27:32;;;;;;;29.2;21.5;;;;;;;2.6;95.66699;97907.34;;;;
2021/03/15 01:37:30;;;;;;;47.4;29.1;;;;;;;2.7;95.11621;97891.33;;;;
2021/03/15 01:47:28;;;;;;;24.7;19.6;;;;;;;2.59;95.28027;97885.26;;;;
2021/03/15 01:57:25;;;;;;;26.9;20.8;;;;;;;2.44;94.58594;97885.31;;;;
2021/03/15 02:07:23;;;;;;;42;22.6;;;;;;;2.35;93.93848;97884.29;;;;
2021/03/15 02:17:21;;;;;;;36.2;24.2;;;;;;;2.17;93.82227;97880.36;;;;
2021/03/15 02:27:55;;;;;;;31.5;23;;;;;;;1.91;94.13965;97879.61;;;;
2021/03/15 02:37:17;;;;;;;35.4;24.9;;;;;;;1.52;94.82324;97894.55;;;;
2021/03/15 02:47:18;;;;;;;31.2;21.1;;;;;;;1.3;95.61914;97899.3;;;;
2021/03/15 02:57:15;;;;;;;37.5;25.8;;;;;;;1.24;96.97656;97910.98;;;;
2021/03/15 03:07:13;;;;;;;34.4;25.2;;;;;;;1.3;98.36426;97913.38;;;;
2021/03/15 03:17:07;;;;;;;32.2;24.7;;;;;;;1.37;98.79785;97921.88;;;;
2021/03/15 03:27:04;;;;;;;27.4;24.4;;;;;;;1.48;100;97922.68;;;;
2021/03/15 03:37:02;;;;;;;32.9;23.5;;;;;;;1.63;100;97925.35;;;;
2021/03/15 03:47:00;;;;;;;27.3;22.5;;;;;;;1.7;99.75;97930.39;;;;
2021/03/15 03:56:57;;;;;;;45.1;26.4;;;;;;;1.87;99.2207;97929.06;;;;
2021/03/15 04:06:55;;;;;;;44.4;26.3;;;;;;;1.95;98.74219;97917.06;;;;
2021/03/15 04:16:53;;;;;;;31.4;23.8;;;;;;;1.98;98.03418;97911.22;;;;
2021/03/15 04:26:50;;;;;;;31;22.7;;;;;;;1.86;97.63477;97913.38;;;;
2021/03/15 04:36:49;;;;;;;30.9;22.9;;;;;;;1.84;98.38672;97912.86;;;;
2021/03/15 04:46:46;;;;;;;32.4;25.1;;;;;;;1.9;98.77637;97909.92;;;;
2021/03/15 04:56:44;;;;;;;39.6;27;;;;;;;2.03;98.67285;97919.19;;;;
2021/03/15 05:06:41;;;;;;;26.9;23.1;;;;;;;2.1;99.52441;97913.59;;;;
2021/03/15 05:16:39;;;;;;;29.7;23.4;;;;;;;2.31;98.69238;97909.83;;;;
2021/03/15 05:26:37;;;;;;;35.7;23.6;;;;;;;2.41;98.81641;97909.79;;;;
2021/03/15 05:36:35;;;;;;;34.3;23.4;;;;;;;2.42;99.40137;97906.88;;;;
2021/03/15 05:46:57;;;;;;;34;23.8;;;;;;;2.75;98.08008;97918.7;;;;
2021/03/15 05:56:40;;;;;;;32;24.7;;;;;;;2.91;98.07227;97924.76;;;;
2021/03/15 06:06:34;;;;;;;32.9;24.8;;;;;;;3.07;97.35742;97922.8;;;;
2021/03/15 06:16:27;;;;;;;33.9;27.8;;;;;;;3.19;96.41406;97928.59;;;;
2021/03/15 06:26:27;;;;;;;35.7;27.4;;;;;;;3.42;96.37695;97925.23;;;;
2021/03/15 06:36:22;;;;;;;34.9;26.9;;;;;;;3.61;94.79883;97910.16;;;;
2021/03/15 06:46:20;;;;;;;39.2;33.1;;;;;;;3.81;94.05762;97923.34;;;;
2021/03/15 06:56:18;;;;;;;53.1;35.1;;;;;;;4.2;93.47949;97920.55;;;;
2021/03/15 07:06:18;;;;;;;42.8;36.5;;;;;;;4.36;91.5;97930.01;;;;
2021/03/15 07:16:14;;;;;;;42.3;35.3;;;;;;;4.74;91.39258;97930.91;;;;
2021/03/15 07:26:12;;;;;;;42;34.6;;;;;;;4.84;89.38281;97948.67;;;;
2021/03/15 07:36:10;;;;;;;39.3;30.9;;;;;;;5.3;87.82422;97947.01;;;;
2021/03/15 07:46:08;;;;;;;33.9;28.4;;;;;;;5.67;85.62891;97942.71;;;;
2021/03/15 07:56:06;;;;;;;34.8;30;;;;;;;5.77;83.09961;97958.59;;;;
2021/03/15 08:06:04;;;;;;;36.6;30.8;;;;;;;6.03;81.5918;97949.91;;;;
2021/03/15 08:16:02;;;;;;;31.8;24.4;;;;;;;6.43;80.04785;97947.59;;;;
2021/03/15 08:26:01;;;;;;;35.3;29.6;;;;;;;6.32;79.16797;97946.98;;;;
2021/03/15 08:35:59;;;;;;;40.2;28.9;;;;;;;6.61;78.78516;97946.72;;;;
2021/03/15 08:45:57;;;;;;;32.9;23.9;;;;;;;6.89;77.45996;97959.02;;;;
2021/03/15 08:55:56;;;;;;;28.7;24;;;;;;;7.25;75.92285;97950.25;;;;
2021/03/15 09:05:54;;;;;;;25.4;20.1;;;;;;;6.87;75.20801;97937.09;;;;
2021/03/15 09:15:53;;;;;;;30.7;20.8;;;;;;;6.85;73.52539;97935.8;;;;
2021/03/15 09:25:51;;;;;;;23.4;16.9;;;;;;;6.73;74.03027;97930.97;;;;
2021/03/15 09:35:49;;;;;;;25.9;19.3;;;;;;;7.08;72.47656;97910.66;;;;
2021/03/15 09:45:48;;;;;;;21.4;17.7;;;;;;;7.96;72.39941;97893.85;;;;
2021/03/15 09:55:46;;;;;;;22.8;18.9;;;;;;;8.63;67.93066;97896.4;;;;
2021/03/15 10:05:45;;;;;;;27.8;17.5;;;;;;;9.08;66.4668;97886.23;;;;
2021/03/15 10:15:45;;;;;;;20.9;16.7;;;;;;;9.28;64.83789;97884.81;;;;
2021/03/15 10:25:42;;;;;;;26.2;19.5;;;;;;;8.98;64.4668;97881.95;;;;
2021/03/15 10:35:41;;;;;;;24.1;16.3;;;;;;;9.4;62.74414;97861.58;;;;
2021/03/15 10:45:39;;;;;;;19.8;15.4;;;;;;;9.49;60.74512;97853.48;;;;
2021/03/15 10:55:38;;;;;;;13.8;8.8;;;;;;;9.5;56.77441;97855.88;;;;
2021/03/15 11:05:36;;;;;;;21.6;12.9;;;;;;;9.09;59.7959;97839.44;;;;
2021/03/15 11:15:36;;;;;;;14.9;11.3;;;;;;;8.87;58.6709;97826.92;;;;
2021/03/15 11:25:34;;;;;;;19.9;15.5;;;;;;;9.02;62.33984;97829.13;;;;
2021/03/15 11:35:32;;;;;;;24.2;18.2;;;;;;;8.71;62.99512;97806.97;;;;
2021/03/15 11:45:31;;;;;;;22.3;12.9;;;;;;;8.14;60.58984;97803.48;;;;
2021/03/15 11:55:29;;;;;;;17.3;15.6;;;;;;;7.73;65.51855;97793.05;;;;
2021/03/15 12:05:28;;;;;;;21.2;14.7;;;;;;;7.42;65.4043;97794.92;;;;
2021/03/15 12:15:27;;;;;;;16.6;12.7;;;;;;;7.08;65.83691;97788.22;;;;
2021/03/15 12:25:27;;;;;;;13.3;11.1;;;;;;;7.17;64.93945;97782.13;;;;
2021/03/15 12:35:23;;;;;;;13.6;10;;;;;;;7.13;66.42676;97781.16;;;;
2021/03/15 12:45:21;;;;;;;9.9;7;;;;;;;7.2;64;97776.16;;;;
2021/03/15 12:55:20;;;;;;;10.3;6.5;;;;;;;7.18;64.09961;97789.88;;;;
2021/03/15 13:05:18;;;;;;;16.8;10.1;;;;;;;7.18;64.09863;97778.37;;;;
2021/03/15 13:15:16;;;;;;;11.3;8.8;;;;;;;7.22;64.10449;97779.34;;;;
2021/03/15 13:25:15;;;;;;;10.4;7.3;;;;;;;7.43;63.5166;97769.68;;;;
2021/03/15 13:35:14;;;;;;;11;7.9;;;;;;;7.56;63.16504;97771.52;;;;
2021/03/15 13:45:11;;;;;;;13.1;8.9;;;;;;;8.06;62.6416;97756.73;;;;
2021/03/15 13:55:10;;;;;;;15.7;8.3;;;;;;;7.95;61.82617;97757.31;;;;
2021/03/15 14:05:08;;;;;;;12.1;8.3;;;;;;;7.98;60.53418;97749.43;;;;
2021/03/15 14:15:07;;;;;;;14.7;7.3;;;;;;;8.22;58.68262;97756.31;;;;
2021/03/15 14:25:05;;;;;;;7.5;5.5;;;;;;;8.33;58.16797;97753.03;;;;
2021/03/15 14:35:04;;;;;;;14.8;9.8;;;;;;;8.27;57.70801;97756.95;;;;
2021/03/15 14:45:02;;;;;;;8.3;6.7;;;;;;;8.14;58.72949;97757.06;;;;
2021/03/15 14:55:01;;;;;;;11.3;7.9;;;;;;;7.89;59.86816;97745.94;;;;
2021/03/15 15:04:59;;;;;;;9;7.1;;;;;;;7.69;61.65234;97751.06;;;;
2021/03/15 15:14:58;;;;;;;9.5;7.6;;;;;;;7.58;61.76172;97747.85;;;;
2021/03/15 15:24:56;;;;;;;12.6;9.3;;;;;;;7.21;62.94629;97757.11;;;;
2021/03/15 15:34:54;;;;;;;15.9;13.2;;;;;;;7.01;64.34375;97747.66;;;;
2021/03/15 15:44:53;;;;;;;14.7;11.6;;;;;;;6.85;63.34375;97746.45;;;;
2021/03/15 15:54:51;;;;;;;14.8;10.8;;;;;;;6.71;64.44531;97751.05;;;;
2021/03/15 16:04:49;;;;;;;13.8;10.2;;;;;;;6.55;64.75781;97747.14;;;;
2021/03/15 16:14:48;;;;;;;11.3;9.4;;;;;;;6.4;65.38477;97768.88;;;;
2021/03/15 16:24:48;;;;;;;16;13.6;;;;;;;6.14;65.77148;97771.3;;;;
2021/03/15 16:34:44;;;;;;;27;19.6;;;;;;;5.92;66.15234;97765.84;;;;
2021/03/15 16:44:42;;;;;;;23.2;20.7;;;;;;;5.72;67.39746;97784.91;;;;
2021/03/15 16:54:41;;;;;;;25.8;18.2;;;;;;;5.47;68.52246;97789.63;;;;
2021/03/15 17:04:40;;;;;;;42.9;36;;;;;;;5.15;69.33008;97796.83;;;;
2021/03/15 17:14:37;;;;;;;40.9;26.7;;;;;;;4.72;72.69629;97796.93;;;;
2021/03/15 17:24:35;;;;;;;44.3;32.2;;;;;;;4.43;72.32422;97806.95;;;;
2021/03/15 17:34:33;;;;;;;40.8;29;;;;;;;4.01;72.96582;97811.19;;;;
2021/03/15 17:44:31;;;;;;;54.9;49.4;;;;;;;3.79;76.28418;97826.87;;;;
2021/03/15 17:54:29;;;;;;;35.2;26.5;;;;;;;3.65;77.22461;97812.62;;;;
2021/03/15 18:04:28;;;;;;;28.8;21.8;;;;;;;3.6;77.23926;97826;;;;
2021/03/15 18:14:27;;;;;;;30.3;22.2;;;;;;;3.31;78.23926;97817.19;;;;
2021/03/15 18:24:23;;;;;;;44.3;30;;;;;;;2.97;80.18457;97810.01;;;;
2021/03/15 18:34:20;;;;;;;33.2;26;;;;;;;2.8;81.11426;97816.78;;;;
2021/03/15 18:44:18;;;;;;;42.8;29.1;;;;;;;2.46;82.63086;97819.38;;;;
2021/03/15 18:54:16;;;;;;;42.6;38.1;;;;;;;2.16;82.75977;97816.82;;;;
2021/03/15 19:04:13;;;;;;;55.8;44.8;;;;;;;2.02;85.88965;97809.44;;;;
2021/03/15 19:14:11;;;;;;;51.1;32.8;;;;;;;1.68;86.60449;97807.67;;;;
2021/03/15 19:24:09;;;;;;;50.6;44.4;;;;;;;1.54;86.92969;97810.09;;;;
2021/03/15 19:34:06;;;;;;;58.6;38.9;;;;;;;1.18;87.12012;97811.2;;;;
2021/03/15 19:44:04;;;;;;;85.1;62.3;;;;;;;0.8;88.20898;97810.63;;;;
2021/03/15 19:54:01;;;;;;;89.9;61.2;;;;;;;0.52;88.65527;97820.92;;;;
2021/03/15 20:03:59;;;;;;;90.4;58.7;;;;;;;0.34;92.44629;97823;;;;
2021/03/15 20:13:56;;;;;;;97.9;65.6;;;;;;;0.21;92.5166;97823.45;;;;
2021/03/15 20:23:54;;;;;;;125;91.5;;;;;;;0.01;94.25977;97823.38;;;;
2021/03/15 20:33:52;;;;;;;83.2;60;;;;;;;-0.02;95.49023;97830;;;;
2021/03/15 20:43:49;;;;;;;96.8;62.2;;;;;;;-0.27;93.61816;97835.15;;;;
2021/03/15 20:53:46;;;;;;;73.7;49.8;;;;;;;-0.47;95.57422;97831.58;;;;
2021/03/15 21:03:44;;;;;;;98.6;66.4;;;;;;;-0.62;95.39844;97840.2;;;;
2021/03/15 21:13:41;;;;;;;73.9;53.6;;;;;;;-0.75;96.35352;97830.86;;;;
2021/03/15 21:23:38;;;;;;;76.1;55.2;;;;;;;-0.91;95.81348;97844.23;;;;
2021/03/15 21:33:35;;;;;;;73.5;55.1;;;;;;;-1.07;97.00391;97838.79;;;;
2021/03/15 21:43:33;;;;;;;72.7;59.8;;;;;;;-1.2;97.94434;97833.92;;;;
2021/03/15 21:53:30;;;;;;;73.7;57.2;;;;;;;-1.35;99.25879;97840.89;;;;
2021/03/15 22:03:28;;;;;;;80.6;55.5;;;;;;;-1.52;97.84863;97836.5;;;;
2021/03/15 22:13:24;;;;;;;72.7;58;;;;;;;-1.71;98.34961;97850.29;;;;
2021/03/15 22:23:22;;;;;;;68.8;54.9;;;;;;;-1.84;100;97840.88;;;;
2021/03/15 22:33:19;;;;;;;94;67.2;;;;;;;-1.77;100;97832.8;;;;
2021/03/15 22:43:16;;;;;;;121.7;80.1;;;;;;;-1.79;100;97837.51;;;;
2021/03/15 22:53:13;;;;;;;73.7;51.5;;;;;;;-1.77;100;97833.57;;;;
2021/03/15 23:03:10;;;;;;;78;52.7;;;;;;;-1.9;100;97835.78;;;;
2021/03/15 23:13:08;;;;;;;82.8;52.7;;;;;;;-2.01;100;97836.73;;;;
2021/03/15 23:23:05;;;;;;;73.3;50.2;;;;;;;-2.17;100;97833.88;;;;
2021/03/15 23:33:02;;;;;;;67.5;44.1;;;;;;;-2.3;100;97844.8;;;;
2021/03/15 23:42:59;;;;;;;52.9;43.3;;;;;;;-2.44;100;97850.65;;;;
2021/03/15 23:52:56;;;;;;;56.5;41.4;;;;;;;-2.53;100;97855.52;;;;
